Time;durP1;ratioP1;P1;durP2;ratioP2;P2;SDS_P1;SDS_P2;PMS_P1;PMS_P2;Temp;Humidity;BMP_temperature;BMP_pressure;BME280_temperature;BME280_humidity;BME280_pressure;Samples;Min_cycle;Max_cycle;Signal;HPM_P1;HPM_P2
2023/02/03 00:00:29;;;;;;;12.43;11.65;;;;;;;;;;4994252;28;20184;-52
2023/02/03 00:02:54;;;;;;;13.00;12.20;;;;;;;;;;4994453;28;20116;-54
2023/02/03 00:05:21;;;;;;;12.20;11.50;;;;;;;;;;4993668;28;20155;-49
2023/02/03 00:07:46;;;;;;;13.15;12.35;;;;;;;;;;4996180;28;20038;-52
2023/02/03 00:10:12;;;;;;;14.05;13.15;;;;;;;;;;4995157;28;20503;-52
2023/02/03 00:12:38;;;;;;;12.25;11.50;;;;;;;;;;4996708;28;20407;-53
2023/02/03 00:15:04;;;;;;;12.35;11.63;;;;;;;;;;4998460;28;20044;-53
2023/02/03 00:17:29;;;;;;;13.35;12.35;;;;;;;;;;4997878;28;20050;-53
2023/02/03 00:19:54;;;;;;;12.90;12.10;;;;;;;;;;4994552;28;20045;-50
2023/02/03 00:22:20;;;;;;;12.25;11.52;;;;;;;;;;4994420;28;20041;-49
2023/02/03 00:24:45;;;;;;;12.10;11.40;;;;;;;;;;5001099;28;20030;-51
2023/02/03 00:27:10;;;;;;;12.20;11.50;;;;;;;;;;4992561;28;20041;-53
2023/02/03 00:29:36;;;;;;;11.98;11.27;;;;;;;;;;4994593;28;20030;-49
2023/02/03 00:32:01;;;;;;;11.82;11.13;;;;;;;;;;4995051;28;20742;-50
2023/02/03 00:34:28;;;;;;;13.00;12.23;;;;;;;;;;4992567;28;20534;-50
2023/02/03 00:36:54;;;;;;;12.10;11.40;;;;;;;;;;4996798;28;20044;-53
2023/02/03 00:39:20;;;;;;;13.35;12.55;;;;;;;;;;4997561;28;20034;-50
2023/02/03 00:41:45;;;;;;;12.38;11.68;;;;;;;;;;4994869;28;20125;-51
2023/02/03 00:44:10;;;;;;;12.98;12.18;;;;;;;;;;4993916;28;20034;-53
2023/02/03 00:46:36;;;;;;;12.68;11.98;;;;;;;;;;4994995;28;20107;-52
2023/02/03 00:49:03;;;;;;;13.02;12.27;;;;;;;;;;4996674;28;20026;-54
2023/02/03 00:51:28;;;;;;;13.05;12.25;;;;;;;;;;4993553;28;20100;-51
2023/02/03 00:53:54;;;;;;;12.48;11.68;;;;;;;;;;4993052;28;20030;-51
2023/02/03 00:56:19;;;;;;;13.52;12.48;;;;;;;;;;5002915;28;20475;-55
2023/02/03 00:58:45;;;;;;;14.63;13.40;;;;;;;;;;5002775;28;20045;-55
2023/02/03 01:01:10;;;;;;;12.90;12.10;;;;;;;;;;4995510;28;20030;-55
2023/02/03 01:03:36;;;;;;;11.88;11.18;;;;;;;;;;4995572;28;20042;-55
2023/02/03 01:06:19;;;;;;;12.88;12.07;;;;;;;;;;4999840;28;20042;-51
2023/02/03 01:08:44;;;;;;;11.88;11.18;;;;;;;;;;5025247;28;20022;-54
2023/02/03 01:11:22;;;;;;;12.00;11.30;;;;;;;;;;4995033;28;20072;-50
2023/02/03 01:13:49;;;;;;;12.07;11.38;;;;;;;;;;4993862;28;20685;-52
2023/02/03 01:16:17;;;;;;;13.05;12.25;;;;;;;;;;4995871;28;20045;-51
2023/02/03 01:18:43;;;;;;;11.45;10.75;;;;;;;;;;4996243;28;20038;-55
2023/02/03 01:21:17;;;;;;;12.02;11.32;;;;;;;;;;5000076;28;20034;-54
2023/02/03 01:23:43;;;;;;;12.88;12.00;;;;;;;;;;4996392;28;20030;-52
2023/02/03 01:26:11;;;;;;;11.20;10.50;;;;;;;;;;4992378;28;20034;-52
2023/02/03 01:28:37;;;;;;;12.98;12.20;;;;;;;;;;4992964;28;20525;-54
2023/02/03 01:31:14;;;;;;;12.55;11.85;;;;;;;;;;4994927;28;20042;-53
2023/02/03 01:33:40;;;;;;;11.13;10.43;;;;;;;;;;4991352;28;20037;-53
2023/02/03 01:36:08;;;;;;;11.85;11.15;;;;;;;;;;4993601;28;20272;-54
2023/02/03 01:38:35;;;;;;;11.93;11.23;;;;;;;;;;4995742;28;20034;-53
2023/02/03 01:41:00;;;;;;;12.50;11.70;;;;;;;;;;4993310;28;20089;-51
2023/02/03 01:43:35;;;;;;;12.10;11.40;;;;;;;;;;4992409;28;20042;-51
2023/02/03 01:46:15;;;;;;;12.27;11.57;;;;;;;;;;5001341;28;20034;-51
2023/02/03 01:48:40;;;;;;;11.43;10.73;;;;;;;;;;4994017;28;20018;-51
2023/02/03 01:51:06;;;;;;;12.82;11.98;;;;;;;;;;4995254;28;20030;-54
2023/02/03 01:53:32;;;;;;;12.20;11.50;;;;;;;;;;4994352;28;20181;-53
2023/02/03 01:55:58;;;;;;;11.90;11.20;;;;;;;;;;4995369;28;20029;-52
2023/02/03 01:58:28;;;;;;;12.93;12.18;;;;;;;;;;4994410;28;20038;-54
2023/02/03 02:00:56;;;;;;;11.20;10.50;;;;;;;;;;4995200;28;20023;-50
2023/02/03 02:03:26;;;;;;;12.88;12.13;;;;;;;;;;4994509;28;20034;-55
2023/02/03 02:05:58;;;;;;;12.43;11.70;;;;;;;;;;4996326;28;20180;-54
2023/02/03 02:08:23;;;;;;;11.27;10.57;;;;;;;;;;4994281;28;20152;-55
2023/02/03 02:10:49;;;;;;;12.32;11.63;;;;;;;;;;4994710;28;20037;-55
2023/02/03 02:13:18;;;;;;;12.75;12.05;;;;;;;;;;4993329;28;20045;-52
2023/02/03 02:15:57;;;;;;;13.15;12.27;;;;;;;;;;4993451;28;20065;-54
2023/02/03 02:18:39;;;;;;;12.65;11.95;;;;;;;;;;4996899;28;20046;-53
2023/02/03 02:21:19;;;;;;;12.30;11.60;;;;;;;;;;4996856;28;20460;-51
2023/02/03 02:24:09;;;;;;;12.75;12.02;;;;;;;;;;4995435;28;20057;-55
2023/02/03 02:26:46;;;;;;;13.10;12.25;;;;;;;;;;4996257;28;20153;-55
2023/02/03 02:29:33;;;;;;;12.68;11.98;;;;;;;;;;4998223;28;20041;-55
2023/02/03 02:32:10;;;;;;;12.10;11.40;;;;;;;;;;4998120;28;20030;-54
2023/02/03 02:34:46;;;;;;;11.50;10.80;;;;;;;;;;4994944;28;20036;-53
2023/02/03 02:37:23;;;;;;;12.27;11.57;;;;;;;;;;4996667;28;20084;-55
2023/02/03 02:40:00;;;;;;;12.45;11.75;;;;;;;;;;4995871;28;20034;-54
2023/02/03 02:42:31;;;;;;;13.13;12.32;;;;;;;;;;4998343;28;20480;-55
2023/02/03 02:45:00;;;;;;;;;;;;;;;;;;4998551;28;20037;-53
2023/02/03 02:47:25;;;;;;;11.68;10.98;;;;;;;;;;4998710;28;19925;-55
2023/02/03 02:50:02;;;;;;;12.02;11.32;;;;;;;;;;4997835;28;20026;-53
2023/02/03 02:52:31;;;;;;;13.27;12.48;;;;;;;;;;4994994;28;20038;-55
2023/02/03 02:55:02;;;;;;;14.02;13.23;;;;;;;;;;4998270;28;20128;-52
2023/02/03 02:57:30;;;;;;;12.50;11.70;;;;;;;;;;4998353;28;20065;-55
2023/02/03 02:59:56;;;;;;;11.82;11.13;;;;;;;;;;4996661;28;20671;-53
2023/02/03 03:02:21;;;;;;;12.02;11.32;;;;;;;;;;4998683;28;20043;-51
2023/02/03 03:04:48;;;;;;;12.50;11.80;;;;;;;;;;4999017;28;20030;-51
2023/02/03 03:07:20;;;;;;;12.18;11.48;;;;;;;;;;4998832;28;20038;-55
2023/02/03 03:09:49;;;;;;;12.52;11.73;;;;;;;;;;4997939;28;20030;-51
2023/02/03 03:12:29;;;;;;;12.07;11.38;;;;;;;;;;4998721;28;20463;-54
2023/02/03 03:15:06;;;;;;;12.02;11.32;;;;;;;;;;4997317;28;20050;-53
2023/02/03 03:17:40;;;;;;;12.40;11.70;;;;;;;;;;4996601;28;20113;-53
2023/02/03 03:20:10;;;;;;;13.52;12.73;;;;;;;;;;4997259;28;20030;-54
2023/02/03 03:22:43;;;;;;;11.83;11.13;;;;;;;;;;4996961;28;20416;-54
2023/02/03 03:25:25;;;;;;;12.00;11.30;;;;;;;;;;4998611;28;20277;-54
2023/02/03 03:27:57;;;;;;;11.98;11.27;;;;;;;;;;4993116;28;20070;-50
2023/02/03 03:30:28;;;;;;;12.05;11.35;;;;;;;;;;4995822;28;20103;-53
2023/02/03 03:32:54;;;;;;;11.00;10.30;;;;;;;;;;4997064;28;20034;-53
2023/02/03 03:35:19;;;;;;;11.60;10.90;;;;;;;;;;4997187;28;20038;-52
2023/02/03 03:37:58;;;;;;;11.82;11.13;;;;;;;;;;4994780;28;20096;-53
2023/02/03 03:40:37;;;;;;;11.88;11.18;;;;;;;;;;4995885;28;20648;-55
2023/02/03 03:43:07;;;;;;;12.35;11.65;;;;;;;;;;4997503;28;20259;-55
2023/02/03 03:45:50;;;;;;;12.10;11.40;;;;;;;;;;4995773;28;20922;-54
2023/02/03 03:48:21;;;;;;;12.00;11.30;;;;;;;;;;4995080;28;20037;-54
2023/02/03 03:50:54;;;;;;;14.18;13.13;;;;;;;;;;4998535;28;20038;-52
2023/02/03 03:53:21;;;;;;;14.13;13.13;;;;;;;;;;4996225;28;20113;-54
2023/02/03 03:55:50;;;;;;;13.35;12.55;;;;;;;;;;4996061;28;20029;-54
2023/02/03 03:58:21;;;;;;;11.98;11.27;;;;;;;;;;4997825;28;20038;-51
2023/02/03 04:00:48;;;;;;;14.38;13.57;;;;;;;;;;4994737;28;20065;-52
2023/02/03 04:03:18;;;;;;;13.48;12.68;;;;;;;;;;4993855;28;20038;-54
2023/02/03 04:05:43;;;;;;;14.43;13.63;;;;;;;;;;4996311;28;20127;-53
2023/02/03 04:08:09;;;;;;;14.05;13.25;;;;;;;;;;4997244;28;20779;-54
2023/02/03 04:10:40;;;;;;;14.02;13.23;;;;;;;;;;4996897;28;20046;-54
2023/02/03 04:13:07;;;;;;;14.55;13.75;;;;;;;;;;4993795;28;20117;-55
2023/02/03 04:15:33;;;;;;;13.65;12.85;;;;;;;;;;4997434;28;20045;-54
2023/02/03 04:18:00;;;;;;;14.32;13.52;;;;;;;;;;4994856;28;20499;-53
2023/02/03 04:20:26;;;;;;;13.52;12.73;;;;;;;;;;4995520;28;20209;-55
2023/02/03 04:22:52;;;;;;;13.50;12.70;;;;;;;;;;4993953;28;20034;-54
2023/02/03 04:25:17;;;;;;;13.85;13.00;;;;;;;;;;4993721;28;20459;-52
2023/02/03 04:27:42;;;;;;;14.43;13.63;;;;;;;;;;4997423;28;20030;-54
2023/02/03 04:30:09;;;;;;;14.55;13.73;;;;;;;;;;4994865;28;20026;-55
2023/02/03 04:32:34;;;;;;;14.30;13.50;;;;;;;;;;4996128;28;20127;-55
2023/02/03 04:35:01;;;;;;;14.60;13.80;;;;;;;;;;4995907;28;20550;-55
2023/02/03 04:37:26;;;;;;;13.95;13.15;;;;;;;;;;4995278;28;20128;-56
2023/02/03 04:39:54;;;;;;;14.07;13.27;;;;;;;;;;5000543;28;20117;-54
2023/02/03 04:42:19;;;;;;;14.32;13.52;;;;;;;;;;4993788;28;20048;-55
2023/02/03 04:44:44;;;;;;;14.40;13.60;;;;;;;;;;4997988;28;20030;-55
2023/02/03 04:47:10;;;;;;;14.93;14.13;;;;;;;;;;4996941;28;20030;-53
2023/02/03 04:49:35;;;;;;;15.70;14.80;;;;;;;;;;4992109;28;20466;-53
2023/02/03 04:52:00;;;;;;;16.20;15.30;;;;;;;;;;4994975;28;20133;-55
2023/02/03 04:54:26;;;;;;;15.38;14.48;;;;;;;;;;4992432;28;20040;-56
2023/02/03 04:56:51;;;;;;;15.18;14.27;;;;;;;;;;4994254;28;20105;-55
2023/02/03 04:59:16;;;;;;;14.20;13.40;;;;;;;;;;4997445;28;20484;-55
2023/02/03 05:01:42;;;;;;;14.40;13.60;;;;;;;;;;4994191;28;20452;-56
2023/02/03 05:04:07;;;;;;;14.52;13.73;;;;;;;;;;4994498;28;20045;-52
2023/02/03 05:06:33;;;;;;;13.73;12.93;;;;;;;;;;4995255;28;20042;-52
2023/02/03 05:08:59;;;;;;;15.90;14.45;;;;;;;;;;4998136;28;20030;-54
2023/02/03 05:11:24;;;;;;;13.85;13.05;;;;;;;;;;4996923;28;20076;-54
2023/02/03 05:13:50;;;;;;;13.65;12.85;;;;;;;;;;4993343;28;20471;-55
2023/02/03 05:16:15;;;;;;;15.15;14.27;;;;;;;;;;4993847;28;20034;-54
2023/02/03 05:18:41;;;;;;;14.68;13.77;;;;;;;;;;4996349;28;20026;-55
2023/02/03 05:21:06;;;;;;;13.85;13.05;;;;;;;;;;4994790;28;20045;-54
2023/02/03 05:23:32;;;;;;;13.88;13.07;;;;;;;;;;5002990;28;20424;-51
2023/02/03 05:25:57;;;;;;;14.18;13.27;;;;;;;;;;4994247;28;20419;-54
2023/02/03 05:28:23;;;;;;;13.15;12.35;;;;;;;;;;4994957;28;20372;-51
2023/02/03 05:30:48;;;;;;;14.13;13.32;;;;;;;;;;4995462;28;20033;-55
2023/02/03 05:33:14;;;;;;;14.23;13.43;;;;;;;;;;4996366;28;20061;-53
2023/02/03 05:35:39;;;;;;;13.07;12.30;;;;;;;;;;4994530;28;20029;-54
2023/02/03 05:38:05;;;;;;;12.93;12.20;;;;;;;;;;5002819;28;20099;-51
2023/02/03 05:43:22;;;;;;;13.77;12.98;;;;;;;;;;4980102;28;20217;-52
2023/02/03 05:45:47;;;;;;;14.05;13.25;;;;;;;;;;4992921;28;20688;-54
2023/02/03 05:48:12;;;;;;;13.45;12.65;;;;;;;;;;4994535;28;20033;-54
2023/02/03 05:50:38;;;;;;;12.60;11.85;;;;;;;;;;4994889;28;20045;-51
2023/02/03 05:53:05;;;;;;;14.00;13.20;;;;;;;;;;4996579;28;20109;-53
2023/02/03 05:55:31;;;;;;;13.77;12.98;;;;;;;;;;5002461;28;20801;-55
2023/02/03 05:57:57;;;;;;;14.27;13.48;;;;;;;;;;4999563;28;20160;-56
2023/02/03 06:00:23;;;;;;;14.52;13.73;;;;;;;;;;4999529;28;20046;-54
2023/02/03 06:03:01;;;;;;;13.85;13.05;;;;;;;;;;4997582;28;20129;-54
2023/02/03 06:05:27;;;;;;;13.13;12.32;;;;;;;;;;4997688;28;20038;-52
2023/02/03 06:07:53;;;;;;;13.07;12.32;;;;;;;;;;4996250;28;20115;-52
2023/02/03 06:10:18;;;;;;;12.98;12.18;;;;;;;;;;4998479;28;20066;-54
2023/02/03 06:12:44;;;;;;;13.68;12.88;;;;;;;;;;5003834;28;20037;-48
2023/02/03 06:15:10;;;;;;;14.52;13.73;;;;;;;;;;4998014;28;20026;-48
2023/02/03 06:17:36;;;;;;;14.25;13.35;;;;;;;;;;4998029;28;20125;-48
2023/02/03 06:20:03;;;;;;;13.82;13.02;;;;;;;;;;4998910;28;20042;-46
2023/02/03 06:22:28;;;;;;;13.40;12.60;;;;;;;;;;4998055;28;20042;-47
2023/02/03 06:24:54;;;;;;;16.95;15.95;;;;;;;;;;5000049;28;20030;-47
2023/02/03 06:27:19;;;;;;;14.05;13.25;;;;;;;;;;4996392;28;20088;-46
2023/02/03 06:29:44;;;;;;;12.80;12.10;;;;;;;;;;4997947;28;20140;-48
2023/02/03 06:32:10;;;;;;;15.45;14.55;;;;;;;;;;4996252;28;20478;-48
2023/02/03 06:34:35;;;;;;;16.52;15.63;;;;;;;;;;4998837;28;20121;-48
2023/02/03 06:37:00;;;;;;;14.57;13.77;;;;;;;;;;4998990;28;20070;-46
2023/02/03 06:39:26;;;;;;;14.82;13.90;;;;;;;;;;4997507;28;20097;-45
2023/02/03 06:41:51;;;;;;;14.40;13.60;;;;;;;;;;5003234;28;20045;-45
2023/02/03 06:44:17;;;;;;;13.98;13.18;;;;;;;;;;4999866;28;20485;-49
2023/02/03 06:46:43;;;;;;;14.32;13.43;;;;;;;;;;4995778;28;20042;-46
2023/02/03 06:49:08;;;;;;;13.27;12.50;;;;;;;;;;4999516;28;20550;-47
2023/02/03 06:51:33;;;;;;;13.65;12.85;;;;;;;;;;4999774;28;20045;-48
2023/02/03 06:54:00;;;;;;;13.23;12.43;;;;;;;;;;4996797;28;20034;-46
2023/02/03 06:56:25;;;;;;;12.88;12.15;;;;;;;;;;4998923;28;20038;-46
2023/02/03 06:58:51;;;;;;;13.77;12.98;;;;;;;;;;5005389;28;20353;-47
2023/02/03 07:01:17;;;;;;;13.55;12.65;;;;;;;;;;4998389;28;20034;-47
2023/02/03 07:03:42;;;;;;;13.70;12.90;;;;;;;;;;4999811;28;20109;-50
2023/02/03 07:06:07;;;;;;;14.68;13.77;;;;;;;;;;4998043;28;20440;-45
2023/02/03 07:08:33;;;;;;;13.50;12.70;;;;;;;;;;5004668;28;20091;-50
2023/02/03 07:10:58;;;;;;;12.95;12.18;;;;;;;;;;4997384;28;20125;-47
2023/02/03 07:13:23;;;;;;;13.38;12.57;;;;;;;;;;4997555;28;20085;-46
2023/02/03 07:15:49;;;;;;;13.32;12.52;;;;;;;;;;4997313;28;20061;-48
2023/02/03 07:18:16;;;;;;;13.40;12.60;;;;;;;;;;4997778;28;20116;-46
2023/02/03 07:20:42;;;;;;;13.27;12.48;;;;;;;;;;4998911;28;20034;-46
2023/02/03 07:23:07;;;;;;;12.55;11.85;;;;;;;;;;4996216;28;20041;-46
2023/02/03 07:25:32;;;;;;;13.40;12.60;;;;;;;;;;5000972;28;20038;-46
2023/02/03 07:27:58;;;;;;;12.68;11.68;;;;;;;;;;4998808;28;20109;-45
2023/02/03 07:30:23;;;;;;;14.30;13.50;;;;;;;;;;4999420;28;20132;-46
2023/02/03 07:32:50;;;;;;;11.80;11.10;;;;;;;;;;4996431;28;20566;-45
2023/02/03 07:35:15;;;;;;;13.02;12.25;;;;;;;;;;4996932;28;20166;-46
2023/02/03 07:37:42;;;;;;;12.80;12.07;;;;;;;;;;4995727;28;20077;-45
2023/02/03 07:40:09;;;;;;;12.07;11.38;;;;;;;;;;4998463;28;20068;-48
2023/02/03 07:42:34;;;;;;;12.10;11.40;;;;;;;;;;4997620;28;20283;-47
2023/02/03 07:44:59;;;;;;;12.82;12.10;;;;;;;;;;4996722;28;20452;-46
2023/02/03 07:47:25;;;;;;;12.38;11.68;;;;;;;;;;4996102;28;20524;-49
2023/02/03 07:49:50;;;;;;;12.35;11.65;;;;;;;;;;4998396;28;20033;-49
2023/02/03 07:52:15;;;;;;;12.50;11.80;;;;;;;;;;4997977;28;20112;-46
2023/02/03 07:54:41;;;;;;;12.60;11.80;;;;;;;;;;4995831;28;20065;-45
2023/02/03 07:57:06;;;;;;;12.63;11.93;;;;;;;;;;4998293;28;20026;-49
2023/02/03 07:59:31;;;;;;;13.57;12.77;;;;;;;;;;4998190;28;20077;-49
2023/02/03 08:01:57;;;;;;;11.38;10.68;;;;;;;;;;4996755;28;20392;-50
2023/02/03 08:04:23;;;;;;;12.90;11.90;;;;;;;;;;4995472;28;20352;-46
2023/02/03 08:06:48;;;;;;;12.40;11.55;;;;;;;;;;4997141;28;20973;-47
2023/02/03 08:09:14;;;;;;;12.02;11.32;;;;;;;;;;4994474;28;20031;-47
2023/02/03 08:11:39;;;;;;;13.18;12.38;;;;;;;;;;4995972;28;20057;-50
2023/02/03 08:14:05;;;;;;;12.82;12.10;;;;;;;;;;4996274;28;20117;-46
2023/02/03 08:16:30;;;;;;;10.90;10.23;;;;;;;;;;4994567;28;20049;-50
2023/02/03 08:18:56;;;;;;;11.57;10.88;;;;;;;;;;4997240;28;20404;-47
2023/02/03 08:21:22;;;;;;;11.15;10.45;;;;;;;;;;4995892;28;20038;-46
2023/02/03 08:23:47;;;;;;;11.55;10.85;;;;;;;;;;4994610;28;20068;-47
2023/02/03 08:26:12;;;;;;;11.93;11.23;;;;;;;;;;4997562;28;20131;-48
2023/02/03 08:28:38;;;;;;;11.10;10.40;;;;;;;;;;4995147;28;20112;-49
2023/02/03 08:31:12;;;;;;;10.50;9.90;;;;;;;;;;4997898;28;20045;-48
2023/02/03 08:33:37;;;;;;;11.65;10.95;;;;;;;;;;4996194;28;20038;-46
2023/02/03 08:36:04;;;;;;;11.15;10.45;;;;;;;;;;4999812;28;20033;-47
2023/02/03 08:38:30;;;;;;;11.90;11.20;;;;;;;;;;4995804;28;20435;-45
2023/02/03 08:40:55;;;;;;;10.40;9.80;;;;;;;;;;4993659;28;20129;-48
2023/02/03 08:43:21;;;;;;;10.93;10.23;;;;;;;;;;4991532;28;20057;-54
2023/02/03 08:45:46;;;;;;;12.25;11.55;;;;;;;;;;4995695;28;20029;-56
2023/02/03 08:48:11;;;;;;;12.10;11.40;;;;;;;;;;4998239;28;20498;-54
2023/02/03 08:50:41;;;;;;;11.65;10.95;;;;;;;;;;4995120;28;20046;-56
2023/02/03 08:53:07;;;;;;;11.93;11.20;;;;;;;;;;4995988;28;20093;-55
2023/02/03 08:55:32;;;;;;;11.40;10.70;;;;;;;;;;4994520;28;20046;-55
2023/02/03 08:57:57;;;;;;;12.10;11.40;;;;;;;;;;4995249;28;20404;-49
2023/02/03 09:00:23;;;;;;;11.88;11.18;;;;;;;;;;4997038;28;20029;-46
2023/02/03 09:02:48;;;;;;;12.50;11.50;;;;;;;;;;4997295;28;20137;-46
2023/02/03 09:05:16;;;;;;;11.75;11.05;;;;;;;;;;4995508;28;20185;-45
2023/02/03 09:07:42;;;;;;;11.63;10.93;;;;;;;;;;4994853;28;20570;-55
2023/02/03 09:10:07;;;;;;;11.80;11.10;;;;;;;;;;4997233;28;20377;-55
2023/02/03 09:12:33;;;;;;;12.13;11.43;;;;;;;;;;4997806;28;20048;-55
2023/02/03 09:14:58;;;;;;;12.30;11.60;;;;;;;;;;4994389;28;20042;-55
2023/02/03 09:17:23;;;;;;;11.95;11.25;;;;;;;;;;4996839;28;20096;-55
2023/02/03 09:19:48;;;;;;;11.82;11.13;;;;;;;;;;4993107;28;20490;-55
2023/02/03 09:22:14;;;;;;;11.75;11.02;;;;;;;;;;4995197;28;20049;-45
2023/02/03 09:24:39;;;;;;;12.07;11.38;;;;;;;;;;4995537;28;20427;-47
2023/02/03 09:27:05;;;;;;;11.60;10.90;;;;;;;;;;4995476;28;20040;-55
2023/02/03 09:29:30;;;;;;;11.32;10.63;;;;;;;;;;4994848;28;20034;-47
2023/02/03 09:31:55;;;;;;;12.13;11.43;;;;;;;;;;4995693;28;20499;-46
2023/02/03 09:34:21;;;;;;;11.48;10.77;;;;;;;;;;4994245;28;20042;-55
2023/02/03 09:36:47;;;;;;;11.38;10.68;;;;;;;;;;4993717;28;20048;-47
2023/02/03 09:39:13;;;;;;;12.27;11.57;;;;;;;;;;4998284;28;20046;-48
2023/02/03 09:42:08;;;;;;;12.23;11.38;;;;;;;;;;4997316;28;20323;-56
2023/02/03 09:44:48;;;;;;;11.80;11.07;;;;;;;;;;4994879;28;20065;-55
2023/02/03 09:47:24;;;;;;;12.13;11.43;;;;;;;;;;4991511;28;20038;-55
2023/02/03 09:49:54;;;;;;;10.45;9.85;;;;;;;;;;4994985;28;20057;-47
2023/02/03 09:52:23;;;;;;;11.60;10.90;;;;;;;;;;4993580;28;20054;-48
2023/02/03 09:54:52;;;;;;;10.85;10.15;;;;;;;;;;4995846;28;20357;-48
2023/02/03 09:57:22;;;;;;;10.77;10.15;;;;;;;;;;4998587;28;20041;-49
2023/02/03 09:59:49;;;;;;;12.07;11.37;;;;;;;;;;4994051;28;20041;-47
2023/02/03 10:02:47;;;;;;;10.85;10.20;;;;;;;;;;4995462;28;20272;-48
2023/02/03 10:05:23;;;;;;;11.27;10.57;;;;;;;;;;5002069;28;20057;-46
2023/02/03 10:08:13;;;;;;;11.40;10.68;;;;;;;;;;4993678;28;20034;-48
2023/02/03 10:11:09;;;;;;;11.95;11.20;;;;;;;;;;4995520;28;20034;-55
2023/02/03 10:14:08;;;;;;;12.23;11.32;;;;;;;;;;4995288;28;20679;-47
2023/02/03 10:16:45;;;;;;;12.70;11.93;;;;;;;;;;4996775;28;20049;-56
2023/02/03 10:19:22;;;;;;;11.13;10.45;;;;;;;;;;4996733;28;20053;-47
2023/02/03 10:21:51;;;;;;;12.05;11.35;;;;;;;;;;4991710;28;20878;-47
2023/02/03 10:24:37;;;;;;;12.65;11.95;;;;;;;;;;4995498;28;20038;-47
2023/02/03 10:27:03;;;;;;;12.90;12.13;;;;;;;;;;4993522;28;20037;-55
2023/02/03 10:29:38;;;;;;;12.43;11.73;;;;;;;;;;4996349;28;20041;-46
2023/02/03 10:32:08;;;;;;;12.00;11.30;;;;;;;;;;4995310;28;20029;-55
2023/02/03 10:34:35;;;;;;;12.00;11.30;;;;;;;;;;4996436;28;20030;-54
2023/02/03 10:37:14;;;;;;;13.25;12.45;;;;;;;;;;4994657;28;20097;-55
2023/02/03 10:39:46;;;;;;;12.15;11.45;;;;;;;;;;4999651;28;20034;-56
2023/02/03 10:42:12;;;;;;;12.30;11.60;;;;;;;;;;4998402;28;20042;-55
2023/02/03 10:44:46;;;;;;;12.63;11.93;;;;;;;;;;4998014;28;20209;-51
2023/02/03 10:47:20;;;;;;;12.30;11.60;;;;;;;;;;4998890;28;20101;-47
2023/02/03 10:49:49;;;;;;;13.35;12.55;;;;;;;;;;4997733;28;20487;-48
2023/02/03 10:52:41;;;;;;;14.20;13.40;;;;;;;;;;4997051;28;20496;-47
2023/02/03 10:55:28;;;;;;;12.88;12.15;;;;;;;;;;5008664;28;20039;-48
2023/02/03 10:57:55;;;;;;;12.70;12.00;;;;;;;;;;5005494;28;20112;-50
2023/02/03 11:00:22;;;;;;;12.65;11.85;;;;;;;;;;4997575;28;20046;-49
2023/02/03 11:03:01;;;;;;;12.65;11.85;;;;;;;;;;5000623;28;20120;-56
2023/02/03 11:05:26;;;;;;;12.93;12.15;;;;;;;;;;4996788;28;20045;-51
2023/02/03 11:07:53;;;;;;;12.75;12.05;;;;;;;;;;4998510;28;20038;-53
2023/02/03 11:10:35;;;;;;;12.52;11.82;;;;;;;;;;4998658;28;20038;-55
2023/02/03 11:13:23;;;;;;;12.00;11.30;;;;;;;;;;4996343;28;20514;-55
2023/02/03 11:15:59;;;;;;;12.60;11.90;;;;;;;;;;4996405;28;20726;-52
2023/02/03 11:18:37;;;;;;;13.05;12.25;;;;;;;;;;4995166;28;20535;-56
2023/02/03 11:21:18;;;;;;;14.07;13.27;;;;;;;;;;4995708;28;20042;-56
2023/02/03 11:23:56;;;;;;;13.35;12.55;;;;;;;;;;5001905;28;20038;-56
2023/02/03 11:26:29;;;;;;;13.35;12.55;;;;;;;;;;4996338;28;20130;-53
2023/02/03 11:28:58;;;;;;;12.55;11.82;;;;;;;;;;4996532;28;20042;-55
2023/02/03 11:31:30;;;;;;;13.88;13.07;;;;;;;;;;4996810;28;20041;-48
2023/02/03 11:34:14;;;;;;;14.02;12.80;;;;;;;;;;4996028;28;20041;-47
2023/02/03 11:36:39;;;;;;;12.52;11.82;;;;;;;;;;4996135;28;20041;-47
2023/02/03 11:39:16;;;;;;;13.00;12.20;;;;;;;;;;4997891;28;20029;-48
2023/02/03 11:41:41;;;;;;;13.70;12.90;;;;;;;;;;4994887;28;20037;-47
2023/02/03 11:44:15;;;;;;;13.20;12.43;;;;;;;;;;4997195;28;20558;-50
2023/02/03 11:46:41;;;;;;;13.60;12.80;;;;;;;;;;4996730;28;20160;-47
2023/02/03 11:49:41;;;;;;;12.27;11.55;;;;;;;;;;4993961;28;20037;-49
2023/02/03 11:52:32;;;;;;;12.15;11.45;;;;;;;;;;4994468;28;20034;-48
2023/02/03 11:55:16;;;;;;;12.02;11.32;;;;;;;;;;4998402;28;20447;-46
2023/02/03 11:58:13;;;;;;;12.57;11.88;;;;;;;;;;4995573;28;20101;-46
2023/02/03 12:00:49;;;;;;;13.05;12.27;;;;;;;;;;4993323;28;20050;-50
2023/02/03 12:03:28;;;;;;;12.77;12.07;;;;;;;;;;4996017;28;20038;-50
2023/02/03 12:06:31;;;;;;;12.02;11.25;;;;;;;;;;4997240;28;20033;-47
2023/02/03 12:09:11;;;;;;;13.40;12.50;;;;;;;;;;4997328;28;20065;-46
2023/02/03 12:11:39;;;;;;;12.77;12.00;;;;;;;;;;5000118;28;20045;-47
2023/02/03 12:14:25;;;;;;;13.23;12.32;;;;;;;;;;5012089;28;20038;-48
2023/02/03 12:17:13;;;;;;;12.23;11.52;;;;;;;;;;4999048;28;20080;-48
2023/02/03 12:19:54;;;;;;;12.63;11.93;;;;;;;;;;4995529;28;20030;-47
2023/02/03 12:22:34;;;;;;;12.80;12.07;;;;;;;;;;4993762;28;20127;-47
2023/02/03 12:25:06;;;;;;;12.77;12.02;;;;;;;;;;4996371;28;20516;-47
2023/02/03 12:27:59;;;;;;;11.70;11.00;;;;;;;;;;4994339;28;20052;-48
2023/02/03 12:30:34;;;;;;;13.45;12.65;;;;;;;;;;4995087;28;20030;-51
2023/02/03 12:33:05;;;;;;;12.35;11.65;;;;;;;;;;4995235;28;20160;-52
2023/02/03 12:35:44;;;;;;;13.70;12.70;;;;;;;;;;4997070;28;20042;-46
2023/02/03 12:38:26;;;;;;;12.50;11.80;;;;;;;;;;4995679;28;20696;-49
2023/02/03 12:40:55;;;;;;;12.00;11.30;;;;;;;;;;4995299;28;20424;-46
2023/02/03 12:43:38;;;;;;;12.65;11.95;;;;;;;;;;4995253;28;20042;-51
2023/02/03 12:46:14;;;;;;;11.80;11.10;;;;;;;;;;4996712;28;20076;-49
2023/02/03 12:49:04;;;;;;;13.15;12.35;;;;;;;;;;4997597;28;20764;-47
2023/02/03 12:51:39;;;;;;;12.30;11.60;;;;;;;;;;4993893;28;20041;-48
2023/02/03 12:54:32;;;;;;;12.65;11.75;;;;;;;;;;4994265;28;20084;-47
2023/02/03 12:57:17;;;;;;;12.25;11.45;;;;;;;;;;5007550;28;20334;-51
2023/02/03 12:59:49;;;;;;;12.02;11.32;;;;;;;;;;4996799;28;20109;-53
2023/02/03 13:02:23;;;;;;;12.40;11.70;;;;;;;;;;5002863;28;20026;-53
2023/02/03 13:04:53;;;;;;;12.38;11.68;;;;;;;;;;4994810;28;20100;-55
2023/02/03 13:07:35;;;;;;;11.88;11.18;;;;;;;;;;4994998;28;20090;-52
2023/02/03 13:10:04;;;;;;;12.52;11.82;;;;;;;;;;4994982;28;20048;-54
2023/02/03 13:12:35;;;;;;;12.30;11.60;;;;;;;;;;4998474;28;20037;-54
2023/02/03 13:15:27;;;;;;;13.13;12.35;;;;;;;;;;4993340;28;20064;-57
2023/02/03 13:18:13;;;;;;;11.82;11.13;;;;;;;;;;4998085;28;20152;-46
2023/02/03 13:20:38;;;;;;;12.65;11.95;;;;;;;;;;4992237;28;20173;-56
2023/02/03 13:23:09;;;;;;;13.05;12.25;;;;;;;;;;4994446;28;20113;-56
2023/02/03 13:25:52;;;;;;;12.43;11.73;;;;;;;;;;4993835;28;20042;-56
2023/02/03 13:28:43;;;;;;;12.73;12.00;;;;;;;;;;4995920;28;20042;-55
2023/02/03 13:31:13;;;;;;;13.20;12.40;;;;;;;;;;4997121;28;20476;-55
2023/02/03 13:34:01;;;;;;;12.75;12.05;;;;;;;;;;4996502;28;20065;-56
2023/02/03 13:37:16;;;;;;;13.90;13.10;;;;;;;;;;4997413;28;20030;-55
2023/02/03 13:39:47;;;;;;;13.35;12.55;;;;;;;;;;4976556;28;20057;-56
2023/02/03 13:42:15;;;;;;;;;;;;;;;;;;4975548;28;20595;-57
2023/02/03 13:44:45;;;;;;;12.65;11.95;;;;;;;;;;5007117;28;19967;-56
2023/02/03 13:47:22;;;;;;;13.10;12.32;;;;;;;;;;4994810;28;20049;-56
2023/02/03 13:49:53;;;;;;;12.25;11.55;;;;;;;;;;4992977;28;20038;-56
2023/02/03 13:52:27;;;;;;;;;;;;;;;;;;4992098;28;20042;-56
2023/02/03 13:54:53;;;;;;;12.45;11.75;;;;;;;;;;4992967;28;19917;-56
2023/02/03 13:57:22;;;;;;;11.73;11.02;;;;;;;;;;4995940;28;20034;-55
2023/02/03 13:59:48;;;;;;;13.48;12.68;;;;;;;;;;4995635;28;20523;-55
2023/02/03 14:02:20;;;;;;;12.50;11.80;;;;;;;;;;4999705;28;20041;-56
2023/02/03 14:04:45;;;;;;;11.70;11.00;;;;;;;;;;4996264;28;20080;-55
2023/02/03 14:07:22;;;;;;;12.18;11.48;;;;;;;;;;4994370;28;20610;-55
2023/02/03 14:10:13;;;;;;;12.30;11.60;;;;;;;;;;5002117;28;20046;-54
2023/02/03 14:12:50;;;;;;;11.70;11.00;;;;;;;;;;4997071;28;20065;-55
2023/02/03 14:15:26;;;;;;;12.10;11.40;;;;;;;;;;4999117;28;20046;-56
2023/02/03 14:17:52;;;;;;;12.88;12.15;;;;;;;;;;4998323;28;20068;-55
2023/02/03 14:20:26;;;;;;;12.60;11.90;;;;;;;;;;4996656;28;20091;-56
2023/02/03 14:22:57;;;;;;;13.38;12.57;;;;;;;;;;4997061;28;20042;-57
2023/02/03 14:25:23;;;;;;;;;;;;;;;;;;4999338;28;20073;-56
2023/02/03 14:28:02;;;;;;;11.23;10.52;;;;;;;;;;4996843;28;20012;-56
2023/02/03 14:30:28;;;;;;;12.05;11.35;;;;;;;;;;4998109;28;20049;-56
2023/02/03 14:32:59;;;;;;;12.20;11.50;;;;;;;;;;4997497;28;20034;-56
2023/02/03 14:35:36;;;;;;;11.55;10.85;;;;;;;;;;4996031;28;20087;-54
2023/02/03 14:38:05;;;;;;;12.88;12.10;;;;;;;;;;4999453;28;20088;-55
2023/02/03 14:40:42;;;;;;;13.13;12.35;;;;;;;;;;4996238;28;20097;-54